sensor_id;sensor_type;location;lat;lon;timestamp;temperature;humidity
75387;DHT22;63966;47.914;22.266;2022-10-16T00:00:58;7.42;96.21
75387;DHT22;63966;47.914;22.266;2022-10-16T00:04:02;7.37;96.18
75387;DHT22;63966;47.914;22.266;2022-10-16T00:07:05;7.22;95.85
75387;DHT22;63966;47.914;22.266;2022-10-16T00:10:09;6.99;94.79
75387;DHT22;63966;47.914;22.266;2022-10-16T00:13:12;6.91;94.87
75387;DHT22;63966;47.914;22.266;2022-10-16T00:16:17;6.86;94.97
75387;DHT22;63966;47.914;22.266;2022-10-16T00:19:21;6.61;93.86
75387;DHT22;63966;47.914;22.266;2022-10-16T00:22:24;6.52;93.96
75387;DHT22;63966;47.914;22.266;2022-10-16T00:25:28;6.40;93.20
75387;DHT22;63966;47.914;22.266;2022-10-16T00:28:31;6.42;93.36
75387;DHT22;63966;47.914;22.266;2022-10-16T00:31:35;6.54;94.03
75387;DHT22;63966;47.914;22.266;2022-10-16T00:34:38;6.54;93.91
75387;DHT22;63966;47.914;22.266;2022-10-16T00:37:42;6.55;93.66
75387;DHT22;63966;47.914;22.266;2022-10-16T00:40:46;6.51;93.48
75387;DHT22;63966;47.914;22.266;2022-10-16T00:43:59;6.41;93.56
75387;DHT22;63966;47.914;22.266;2022-10-16T00:47:03;6.38;93.46
75387;DHT22;63966;47.914;22.266;2022-10-16T00:53:12;6.16;93.05
75387;DHT22;63966;47.914;22.266;2022-10-16T00:56:16;6.09;93.33
75387;DHT22;63966;47.914;22.266;2022-10-16T00:59:25;6.03;93.27
75387;DHT22;63966;47.914;22.266;2022-10-16T01:02:29;6.00;92.95
75387;DHT22;63966;47.914;22.266;2022-10-16T01:13:02;5.73;92.73
75387;DHT22;63966;47.914;22.266;2022-10-16T01:16:34;5.69;92.82
75387;DHT22;63966;47.914;22.266;2022-10-16T01:23:59;5.55;92.86
75387;DHT22;63966;47.914;22.266;2022-10-16T01:26:48;5.52;92.74
75387;DHT22;63966;47.914;22.266;2022-10-16T01:33:11;5.45;92.71
75387;DHT22;63966;47.914;22.266;2022-10-16T01:36:24;5.47;93.09
75387;DHT22;63966;47.914;22.266;2022-10-16T01:39:31;5.51;93.11
75387;DHT22;63966;47.914;22.266;2022-10-16T01:42:59;5.52;93.19
75387;DHT22;63966;47.914;22.266;2022-10-16T01:46:07;5.54;93.18
75387;DHT22;63966;47.914;22.266;2022-10-16T01:49:12;5.44;92.47
75387;DHT22;63966;47.914;22.266;2022-10-16T01:52:19;5.41;92.68
75387;DHT22;63966;47.914;22.266;2022-10-16T01:55:34;5.45;92.53
75387;DHT22;63966;47.914;22.266;2022-10-16T02:02:07;5.44;92.39
75387;DHT22;63966;47.914;22.266;2022-10-16T02:05:15;5.47;92.52
75387;DHT22;63966;47.914;22.266;2022-10-16T02:08:20;5.51;92.42
75387;DHT22;63966;47.914;22.266;2022-10-16T02:11:24;5.45;92.68
75387;DHT22;63966;47.914;22.266;2022-10-16T02:14:28;5.44;92.86
75387;DHT22;63966;47.914;22.266;2022-10-16T02:17:32;5.42;92.72
75387;DHT22;63966;47.914;22.266;2022-10-16T02:20:55;5.47;92.75
75387;DHT22;63966;47.914;22.266;2022-10-16T02:27:13;5.50;92.35
75387;DHT22;63966;47.914;22.266;2022-10-16T02:33:30;5.37;91.98
75387;DHT22;63966;47.914;22.266;2022-10-16T02:36:36;5.35;92.11
75387;DHT22;63966;47.914;22.266;2022-10-16T02:39:41;5.33;92.09
75387;DHT22;63966;47.914;22.266;2022-10-16T02:42:44;5.34;91.89
75387;DHT22;63966;47.914;22.266;2022-10-16T02:45:47;5.33;91.67
75387;DHT22;63966;47.914;22.266;2022-10-16T02:48:51;5.33;91.90
75387;DHT22;63966;47.914;22.266;2022-10-16T02:51:54;5.34;92.47
75387;DHT22;63966;47.914;22.266;2022-10-16T02:54:57;5.44;92.85
75387;DHT22;63966;47.914;22.266;2022-10-16T02:58:01;5.48;92.63
75387;DHT22;63966;47.914;22.266;2022-10-16T03:01:04;5.54;93.08
75387;DHT22;63966;47.914;22.266;2022-10-16T03:04:08;5.71;94.59
75387;DHT22;63966;47.914;22.266;2022-10-16T03:07:12;5.61;93.71
75387;DHT22;63966;47.914;22.266;2022-10-16T03:10:15;5.51;93.01
75387;DHT22;63966;47.914;22.266;2022-10-16T03:13:19;5.44;92.17
75387;DHT22;63966;47.914;22.266;2022-10-16T03:16:23;5.24;90.93
75387;DHT22;63966;47.914;22.266;2022-10-16T03:19:26;5.17;90.86
75387;DHT22;63966;47.914;22.266;2022-10-16T03:22:30;5.09;91.54
75387;DHT22;63966;47.914;22.266;2022-10-16T03:25:33;4.92;91.34
75387;DHT22;63966;47.914;22.266;2022-10-16T03:28:37;4.82;92.03
75387;DHT22;63966;47.914;22.266;2022-10-16T03:31:40;4.75;92.50
75387;DHT22;63966;47.914;22.266;2022-10-16T03:34:44;4.75;92.76
75387;DHT22;63966;47.914;22.266;2022-10-16T03:37:47;4.77;92.69
75387;DHT22;63966;47.914;22.266;2022-10-16T03:40:50;4.79;92.98
75387;DHT22;63966;47.914;22.266;2022-10-16T03:43:54;4.82;93.47
75387;DHT22;63966;47.914;22.266;2022-10-16T03:46:57;4.89;93.53
75387;DHT22;63966;47.914;22.266;2022-10-16T03:50:00;4.72;93.54
75387;DHT22;63966;47.914;22.266;2022-10-16T03:53:04;4.54;93.56
75387;DHT22;63966;47.914;22.266;2022-10-16T03:56:07;4.61;93.86
75387;DHT22;63966;47.914;22.266;2022-10-16T03:59:11;4.69;94.00
75387;DHT22;63966;47.914;22.266;2022-10-16T04:02:14;4.77;93.89
75387;DHT22;63966;47.914;22.266;2022-10-16T04:05:18;4.58;94.00
75387;DHT22;63966;47.914;22.266;2022-10-16T04:08:21;4.65;94.34
75387;DHT22;63966;47.914;22.266;2022-10-16T04:11:25;4.59;94.23
75387;DHT22;63966;47.914;22.266;2022-10-16T04:14:28;4.45;94.46
75387;DHT22;63966;47.914;22.266;2022-10-16T04:17:32;4.40;94.74
75387;DHT22;63966;47.914;22.266;2022-10-16T04:20:36;4.37;94.74
75387;DHT22;63966;47.914;22.266;2022-10-16T04:23:40;4.31;94.98
75387;DHT22;63966;47.914;22.266;2022-10-16T04:26:43;4.34;94.92
75387;DHT22;63966;47.914;22.266;2022-10-16T04:29:46;4.46;96.06
75387;DHT22;63966;47.914;22.266;2022-10-16T04:32:53;4.58;95.98
75387;DHT22;63966;47.914;22.266;2022-10-16T04:36:01;4.34;95.42
75387;DHT22;63966;47.914;22.266;2022-10-16T04:39:05;4.20;95.36
75387;DHT22;63966;47.914;22.266;2022-10-16T04:42:09;4.18;95.96
75387;DHT22;63966;47.914;22.266;2022-10-16T04:45:12;4.14;95.80
75387;DHT22;63966;47.914;22.266;2022-10-16T04:48:19;4.13;95.77
75387;DHT22;63966;47.914;22.266;2022-10-16T04:51:22;4.17;95.66
75387;DHT22;63966;47.914;22.266;2022-10-16T04:54:26;4.22;95.73
75387;DHT22;63966;47.914;22.266;2022-10-16T04:57:30;4.18;95.50
75387;DHT22;63966;47.914;22.266;2022-10-16T05:00:34;4.33;95.66
75387;DHT22;63966;47.914;22.266;2022-10-16T05:03:37;4.49;95.90
75387;DHT22;63966;47.914;22.266;2022-10-16T05:06:41;4.55;95.74
75387;DHT22;63966;47.914;22.266;2022-10-16T05:09:45;4.59;95.32
75387;DHT22;63966;47.914;22.266;2022-10-16T05:12:48;4.68;95.06
75387;DHT22;63966;47.914;22.266;2022-10-16T05:15:52;5.20;94.70
75387;DHT22;63966;47.914;22.266;2022-10-16T05:18:56;5.76;93.43
75387;DHT22;63966;47.914;22.266;2022-10-16T05:22:19;6.58;91.23
75387;DHT22;63966;47.914;22.266;2022-10-16T05:25:23;7.33;88.38
75387;DHT22;63966;47.914;22.266;2022-10-16T05:28:29;8.17;84.95
75387;DHT22;63966;47.914;22.266;2022-10-16T05:31:34;8.70;81.42
75387;DHT22;63966;47.914;22.266;2022-10-16T05:34:37;9.15;79.05
75387;DHT22;63966;47.914;22.266;2022-10-16T05:37:40;9.74;78.08
75387;DHT22;63966;47.914;22.266;2022-10-16T05:40:50;10.28;75.83
75387;DHT22;63966;47.914;22.266;2022-10-16T05:43:54;10.55;75.58
75387;DHT22;63966;47.914;22.266;2022-10-16T05:46:57;11.15;73.58
75387;DHT22;63966;47.914;22.266;2022-10-16T05:50:01;11.65;72.03
75387;DHT22;63966;47.914;22.266;2022-10-16T05:53:04;12.28;70.32
75387;DHT22;63966;47.914;22.266;2022-10-16T05:56:10;12.78;68.50
75387;DHT22;63966;47.914;22.266;2022-10-16T05:59:14;13.27;66.41
75387;DHT22;63966;47.914;22.266;2022-10-16T06:02:17;13.58;65.80
75387;DHT22;63966;47.914;22.266;2022-10-16T06:05:20;14.15;64.24
75387;DHT22;63966;47.914;22.266;2022-10-16T06:08:24;14.71;63.26
75387;DHT22;63966;47.914;22.266;2022-10-16T06:11:30;15.06;61.65
75387;DHT22;63966;47.914;22.266;2022-10-16T06:14:33;15.44;60.83
75387;DHT22;63966;47.914;22.266;2022-10-16T06:17:36;15.87;60.27
75387;DHT22;63966;47.914;22.266;2022-10-16T06:20:40;15.86;60.10
75387;DHT22;63966;47.914;22.266;2022-10-16T06:23:44;16.12;59.46
75387;DHT22;63966;47.914;22.266;2022-10-16T06:26:49;16.18;59.65
75387;DHT22;63966;47.914;22.266;2022-10-16T06:29:52;16.39;59.30
75387;DHT22;63966;47.914;22.266;2022-10-16T06:32:56;16.83;59.17
75387;DHT22;63966;47.914;22.266;2022-10-16T06:36:07;17.56;57.08
75387;DHT22;63966;47.914;22.266;2022-10-16T06:39:11;17.44;57.26
75387;DHT22;63966;47.914;22.266;2022-10-16T06:42:14;17.80;56.58
75387;DHT22;63966;47.914;22.266;2022-10-16T06:45:18;17.35;58.01
75387;DHT22;63966;47.914;22.266;2022-10-16T06:48:23;17.92;58.16
75387;DHT22;63966;47.914;22.266;2022-10-16T06:51:27;18.41;56.44
75387;DHT22;63966;47.914;22.266;2022-10-16T06:54:30;18.17;57.06
75387;DHT22;63966;47.914;22.266;2022-10-16T06:57:47;18.24;57.39
75387;DHT22;63966;47.914;22.266;2022-10-16T07:00:55;17.86;58.43
75387;DHT22;63966;47.914;22.266;2022-10-16T07:04:00;17.61;59.14
75387;DHT22;63966;47.914;22.266;2022-10-16T07:07:04;18.13;57.83
75387;DHT22;63966;47.914;22.266;2022-10-16T07:10:11;19.34;55.80
75387;DHT22;63966;47.914;22.266;2022-10-16T07:13:15;20.06;53.64
75387;DHT22;63966;47.914;22.266;2022-10-16T07:16:21;20.51;52.24
75387;DHT22;63966;47.914;22.266;2022-10-16T07:19:24;20.34;53.40
75387;DHT22;63966;47.914;22.266;2022-10-16T07:22:32;20.18;54.00
75387;DHT22;63966;47.914;22.266;2022-10-16T07:25:35;20.19;53.66
75387;DHT22;63966;47.914;22.266;2022-10-16T07:28:39;20.15;54.83
75387;DHT22;63966;47.914;22.266;2022-10-16T07:31:43;20.54;53.12
75387;DHT22;63966;47.914;22.266;2022-10-16T07:34:47;20.87;52.49
75387;DHT22;63966;47.914;22.266;2022-10-16T07:37:50;21.41;49.89
75387;DHT22;63966;47.914;22.266;2022-10-16T07:40:58;21.90;49.85
75387;DHT22;63966;47.914;22.266;2022-10-16T07:44:02;21.46;49.90
75387;DHT22;63966;47.914;22.266;2022-10-16T07:47:07;21.24;51.32
75387;DHT22;63966;47.914;22.266;2022-10-16T07:50:11;20.41;52.70
75387;DHT22;63966;47.914;22.266;2022-10-16T07:53:15;19.36;55.99
75387;DHT22;63966;47.914;22.266;2022-10-16T07:56:19;18.52;57.67
75387;DHT22;63966;47.914;22.266;2022-10-16T07:59:22;17.85;60.05
75387;DHT22;63966;47.914;22.266;2022-10-16T08:02:26;17.68;61.31
75387;DHT22;63966;47.914;22.266;2022-10-16T08:05:31;17.30;63.52
75387;DHT22;63966;47.914;22.266;2022-10-16T08:08:35;17.31;62.59
75387;DHT22;63966;47.914;22.266;2022-10-16T08:11:38;16.77;65.69
75387;DHT22;63966;47.914;22.266;2022-10-16T08:14:41;16.69;65.40
75387;DHT22;63966;47.914;22.266;2022-10-16T08:18:00;16.62;62.87
75387;DHT22;63966;47.914;22.266;2022-10-16T08:21:05;16.75;62.10
75387;DHT22;63966;47.914;22.266;2022-10-16T08:24:08;16.67;63.63
75387;DHT22;63966;47.914;22.266;2022-10-16T08:27:12;16.67;62.98
75387;DHT22;63966;47.914;22.266;2022-10-16T08:30:17;16.55;63.09
75387;DHT22;63966;47.914;22.266;2022-10-16T08:33:20;16.44;61.09
75387;DHT22;63966;47.914;22.266;2022-10-16T08:36:23;16.65;59.87
75387;DHT22;63966;47.914;22.266;2022-10-16T08:39:28;16.49;60.31
75387;DHT22;63966;47.914;22.266;2022-10-16T08:49:21;16.73;57.95
75387;DHT22;63966;47.914;22.266;2022-10-16T08:52:32;16.77;57.38
75387;DHT22;63966;47.914;22.266;2022-10-16T08:55:44;16.70;53.29
75387;DHT22;63966;47.914;22.266;2022-10-16T08:58:49;16.86;54.90
75387;DHT22;63966;47.914;22.266;2022-10-16T09:02:00;16.81;58.44
75387;DHT22;63966;47.914;22.266;2022-10-16T09:05:24;16.87;55.61
75387;DHT22;63966;47.914;22.266;2022-10-16T09:12:12;16.91;58.02
75387;DHT22;63966;47.914;22.266;2022-10-16T09:15:38;16.90;57.82
75387;DHT22;63966;47.914;22.266;2022-10-16T09:18:48;17.08;56.63
75387;DHT22;63966;47.914;22.266;2022-10-16T09:21:54;17.00;58.32
75387;DHT22;63966;47.914;22.266;2022-10-16T09:25:04;17.11;58.98
75387;DHT22;63966;47.914;22.266;2022-10-16T09:28:14;17.25;60.13
75387;DHT22;63966;47.914;22.266;2022-10-16T09:31:22;17.35;60.06
75387;DHT22;63966;47.914;22.266;2022-10-16T09:34:35;17.25;59.74
75387;DHT22;63966;47.914;22.266;2022-10-16T09:37:41;17.28;61.01
75387;DHT22;63966;47.914;22.266;2022-10-16T09:40:45;17.28;59.70
75387;DHT22;63966;47.914;22.266;2022-10-16T09:50:27;17.30;59.73
75387;DHT22;63966;47.914;22.266;2022-10-16T09:53:44;17.34;59.02
75387;DHT22;63966;47.914;22.266;2022-10-16T09:56:49;17.44;59.24
75387;DHT22;63966;47.914;22.266;2022-10-16T09:59:57;17.51;58.27
75387;DHT22;63966;47.914;22.266;2022-10-16T10:03:00;17.49;57.24
75387;DHT22;63966;47.914;22.266;2022-10-16T10:06:23;17.56;59.31
75387;DHT22;63966;47.914;22.266;2022-10-16T10:09:54;17.62;56.31
75387;DHT22;63966;47.914;22.266;2022-10-16T10:12:59;17.44;55.99
75387;DHT22;63966;47.914;22.266;2022-10-16T10:16:02;17.21;56.56
75387;DHT22;63966;47.914;22.266;2022-10-16T10:19:17;17.41;56.70
75387;DHT22;63966;47.914;22.266;2022-10-16T10:22:25;17.49;56.41
75387;DHT22;63966;47.914;22.266;2022-10-16T10:29:32;17.49;56.44
75387;DHT22;63966;47.914;22.266;2022-10-16T10:42:31;17.69;56.02
75387;DHT22;63966;47.914;22.266;2022-10-16T10:45:44;17.83;56.38
75387;DHT22;63966;47.914;22.266;2022-10-16T10:59:35;17.94;55.51
75387;DHT22;63966;47.914;22.266;2022-10-16T11:06:15;17.85;55.05
75387;DHT22;63966;47.914;22.266;2022-10-16T11:09:34;17.85;55.66
75387;DHT22;63966;47.914;22.266;2022-10-16T11:12:44;17.96;55.14
75387;DHT22;63966;47.914;22.266;2022-10-16T11:15:51;18.03;55.89
75387;DHT22;63966;47.914;22.266;2022-10-16T11:22:36;18.06;54.74
75387;DHT22;63966;47.914;22.266;2022-10-16T11:25:41;17.93;55.59
75387;DHT22;63966;47.914;22.266;2022-10-16T11:28:49;18.03;54.67
75387;DHT22;63966;47.914;22.266;2022-10-16T11:32:05;18.09;55.71
75387;DHT22;63966;47.914;22.266;2022-10-16T11:35:23;18.10;55.18
75387;DHT22;63966;47.914;22.266;2022-10-16T11:55:26;17.94;56.13
75387;DHT22;63966;47.914;22.266;2022-10-16T11:58:38;17.93;56.15
75387;DHT22;63966;47.914;22.266;2022-10-16T12:02:12;18.14;56.82
75387;DHT22;63966;47.914;22.266;2022-10-16T12:08:24;17.90;56.97
75387;DHT22;63966;47.914;22.266;2022-10-16T12:11:35;17.93;56.18
75387;DHT22;63966;47.914;22.266;2022-10-16T12:14:40;17.94;56.56
75387;DHT22;63966;47.914;22.266;2022-10-16T12:18:03;17.93;57.96
75387;DHT22;63966;47.914;22.266;2022-10-16T12:21:07;17.97;56.75
75387;DHT22;63966;47.914;22.266;2022-10-16T12:24:41;17.92;57.78
75387;DHT22;63966;47.914;22.266;2022-10-16T12:27:45;17.93;57.09
75387;DHT22;63966;47.914;22.266;2022-10-16T12:31:02;18.23;55.40
75387;DHT22;63966;47.914;22.266;2022-10-16T12:34:05;18.14;55.99
75387;DHT22;63966;47.914;22.266;2022-10-16T12:37:18;18.09;55.31
75387;DHT22;63966;47.914;22.266;2022-10-16T12:40:26;17.97;56.05
75387;DHT22;63966;47.914;22.266;2022-10-16T12:43:40;17.96;55.79
75387;DHT22;63966;47.914;22.266;2022-10-16T12:46:45;18.00;56.23
75387;DHT22;63966;47.914;22.266;2022-10-16T12:49:51;18.33;55.02
75387;DHT22;63966;47.914;22.266;2022-10-16T12:52:55;18.31;54.73
75387;DHT22;63966;47.914;22.266;2022-10-16T13:02:55;18.07;57.02
75387;DHT22;63966;47.914;22.266;2022-10-16T13:13:38;18.03;56.46
75387;DHT22;63966;47.914;22.266;2022-10-16T13:20:21;17.97;56.85
75387;DHT22;63966;47.914;22.266;2022-10-16T13:26:49;18.07;56.35
75387;DHT22;63966;47.914;22.266;2022-10-16T13:33:39;17.97;56.54
75387;DHT22;63966;47.914;22.266;2022-10-16T13:36:49;17.89;57.81
75387;DHT22;63966;47.914;22.266;2022-10-16T13:40:23;17.86;58.59
75387;DHT22;63966;47.914;22.266;2022-10-16T13:43:39;17.90;57.10
75387;DHT22;63966;47.914;22.266;2022-10-16T13:46:44;17.76;57.39
75387;DHT22;63966;47.914;22.266;2022-10-16T13:50:12;17.51;58.66
75387;DHT22;63966;47.914;22.266;2022-10-16T13:53:16;17.41;59.57
75387;DHT22;63966;47.914;22.266;2022-10-16T13:56:21;17.42;59.09
75387;DHT22;63966;47.914;22.266;2022-10-16T13:59:36;17.59;57.97
75387;DHT22;63966;47.914;22.266;2022-10-16T14:02:43;17.68;58.15
75387;DHT22;63966;47.914;22.266;2022-10-16T14:05:52;17.80;58.15
75387;DHT22;63966;47.914;22.266;2022-10-16T14:09:09;17.71;57.85
75387;DHT22;63966;47.914;22.266;2022-10-16T14:12:17;17.38;58.61
75387;DHT22;63966;47.914;22.266;2022-10-16T14:15:24;17.25;58.88
75387;DHT22;63966;47.914;22.266;2022-10-16T14:18:28;17.10;59.39
75387;DHT22;63966;47.914;22.266;2022-10-16T14:21:38;17.00;59.92
75387;DHT22;63966;47.914;22.266;2022-10-16T14:24:43;16.99;60.42
75387;DHT22;63966;47.914;22.266;2022-10-16T14:31:31;17.10;60.54
75387;DHT22;63966;47.914;22.266;2022-10-16T14:34:37;17.10;60.00
75387;DHT22;63966;47.914;22.266;2022-10-16T14:37:44;17.15;59.41
75387;DHT22;63966;47.914;22.266;2022-10-16T14:40:49;17.24;59.73
75387;DHT22;63966;47.914;22.266;2022-10-16T14:43:56;17.44;58.61
75387;DHT22;63966;47.914;22.266;2022-10-16T14:47:09;17.36;59.33
75387;DHT22;63966;47.914;22.266;2022-10-16T14:50:16;17.36;58.84
75387;DHT22;63966;47.914;22.266;2022-10-16T14:53:20;17.23;60.37
75387;DHT22;63966;47.914;22.266;2022-10-16T14:56:25;17.15;59.50
75387;DHT22;63966;47.914;22.266;2022-10-16T14:59:38;17.00;61.26
75387;DHT22;63966;47.914;22.266;2022-10-16T15:02:42;16.88;62.09
75387;DHT22;63966;47.914;22.266;2022-10-16T15:05:46;16.75;63.09
75387;DHT22;63966;47.914;22.266;2022-10-16T15:08:49;16.56;63.43
75387;DHT22;63966;47.914;22.266;2022-10-16T15:11:52;16.45;63.79
75387;DHT22;63966;47.914;22.266;2022-10-16T15:14:56;16.32;63.93
75387;DHT22;63966;47.914;22.266;2022-10-16T15:17:59;16.24;63.60
75387;DHT22;63966;47.914;22.266;2022-10-16T15:21:04;16.05;63.52
75387;DHT22;63966;47.914;22.266;2022-10-16T15:24:13;15.96;63.76
75387;DHT22;63966;47.914;22.266;2022-10-16T15:27:22;15.86;64.96
75387;DHT22;63966;47.914;22.266;2022-10-16T15:30:27;15.73;66.71
75387;DHT22;63966;47.914;22.266;2022-10-16T15:33:30;15.35;68.12
75387;DHT22;63966;47.914;22.266;2022-10-16T15:36:41;15.09;70.11
75387;DHT22;63966;47.914;22.266;2022-10-16T15:39:45;14.99;70.83
75387;DHT22;63966;47.914;22.266;2022-10-16T15:42:49;14.81;71.77
75387;DHT22;63966;47.914;22.266;2022-10-16T15:46:04;14.61;72.72
75387;DHT22;63966;47.914;22.266;2022-10-16T15:49:09;14.40;73.82
75387;DHT22;63966;47.914;22.266;2022-10-16T15:52:13;14.12;75.55
75387;DHT22;63966;47.914;22.266;2022-10-16T15:55:16;14.06;77.56
75387;DHT22;63966;47.914;22.266;2022-10-16T15:58:22;14.02;77.63
75387;DHT22;63966;47.914;22.266;2022-10-16T16:01:26;13.79;78.04
75387;DHT22;63966;47.914;22.266;2022-10-16T16:04:32;13.65;78.22
75387;DHT22;63966;47.914;22.266;2022-10-16T16:07:51;13.53;78.98
75387;DHT22;63966;47.914;22.266;2022-10-16T16:11:06;13.40;79.23
75387;DHT22;63966;47.914;22.266;2022-10-16T16:14:12;13.17;81.06
75387;DHT22;63966;47.914;22.266;2022-10-16T16:17:16;13.09;82.24
75387;DHT22;63966;47.914;22.266;2022-10-16T16:20:20;13.13;82.80
75387;DHT22;63966;47.914;22.266;2022-10-16T16:23:23;13.12;82.20
75387;DHT22;63966;47.914;22.266;2022-10-16T16:26:30;13.10;82.24
75387;DHT22;63966;47.914;22.266;2022-10-16T16:29:39;13.02;81.90
75387;DHT22;63966;47.914;22.266;2022-10-16T16:32:42;12.85;83.16
75387;DHT22;63966;47.914;22.266;2022-10-16T16:35:46;12.61;83.74
75387;DHT22;63966;47.914;22.266;2022-10-16T16:38:50;12.49;84.19
75387;DHT22;63966;47.914;22.266;2022-10-16T16:41:56;12.35;84.89
75387;DHT22;63966;47.914;22.266;2022-10-16T16:45:01;12.13;85.71
75387;DHT22;63966;47.914;22.266;2022-10-16T16:48:04;11.91;85.80
75387;DHT22;63966;47.914;22.266;2022-10-16T16:51:12;11.76;86.25
75387;DHT22;63966;47.914;22.266;2022-10-16T16:54:19;11.59;86.28
75387;DHT22;63966;47.914;22.266;2022-10-16T16:57:23;11.46;86.50
75387;DHT22;63966;47.914;22.266;2022-10-16T17:00:27;11.31;86.89
75387;DHT22;63966;47.914;22.266;2022-10-16T17:03:33;11.31;88.29
75387;DHT22;63966;47.914;22.266;2022-10-16T17:06:36;11.35;88.56
75387;DHT22;63966;47.914;22.266;2022-10-16T17:09:40;11.36;88.80
75387;DHT22;63966;47.914;22.266;2022-10-16T17:12:43;11.31;88.26
75387;DHT22;63966;47.914;22.266;2022-10-16T17:15:48;11.20;88.47
75387;DHT22;63966;47.914;22.266;2022-10-16T17:18:51;11.11;88.66
75387;DHT22;63966;47.914;22.266;2022-10-16T17:21:56;11.07;89.34
75387;DHT22;63966;47.914;22.266;2022-10-16T17:24:59;10.97;89.43
75387;DHT22;63966;47.914;22.266;2022-10-16T17:28:05;10.91;89.18
75387;DHT22;63966;47.914;22.266;2022-10-16T17:31:14;10.89;89.40
75387;DHT22;63966;47.914;22.266;2022-10-16T17:34:18;10.93;89.92
75387;DHT22;63966;47.914;22.266;2022-10-16T17:37:22;10.87;89.69
75387;DHT22;63966;47.914;22.266;2022-10-16T17:40:26;10.80;89.95
75387;DHT22;63966;47.914;22.266;2022-10-16T17:43:29;10.76;90.34
75387;DHT22;63966;47.914;22.266;2022-10-16T17:46:33;10.69;90.53
75387;DHT22;63966;47.914;22.266;2022-10-16T17:49:43;10.66;90.58
75387;DHT22;63966;47.914;22.266;2022-10-16T17:52:46;10.69;90.54
75387;DHT22;63966;47.914;22.266;2022-10-16T17:55:50;10.56;90.20
75387;DHT22;63966;47.914;22.266;2022-10-16T17:59:00;10.45;90.07
75387;DHT22;63966;47.914;22.266;2022-10-16T18:02:03;10.34;90.23
75387;DHT22;63966;47.914;22.266;2022-10-16T18:05:08;10.39;89.86
75387;DHT22;63966;47.914;22.266;2022-10-16T18:08:11;10.26;89.57
75387;DHT22;63966;47.914;22.266;2022-10-16T18:11:15;10.19;90.07
75387;DHT22;63966;47.914;22.266;2022-10-16T18:14:18;10.19;90.22
75387;DHT22;63966;47.914;22.266;2022-10-16T18:17:22;10.08;89.90
75387;DHT22;63966;47.914;22.266;2022-10-16T18:20:25;9.98;89.95
75387;DHT22;63966;47.914;22.266;2022-10-16T18:23:29;9.90;89.82
75387;DHT22;63966;47.914;22.266;2022-10-16T18:26:32;9.80;90.15
75387;DHT22;63966;47.914;22.266;2022-10-16T18:29:36;9.74;90.32
75387;DHT22;63966;47.914;22.266;2022-10-16T18:32:40;9.70;89.84
75387;DHT22;63966;47.914;22.266;2022-10-16T18:35:43;9.64;89.74
75387;DHT22;63966;47.914;22.266;2022-10-16T18:38:47;9.57;89.91
75387;DHT22;63966;47.914;22.266;2022-10-16T18:41:51;9.46;90.02
75387;DHT22;63966;47.914;22.266;2022-10-16T18:44:57;9.40;89.87
75387;DHT22;63966;47.914;22.266;2022-10-16T18:48:00;9.36;90.18
75387;DHT22;63966;47.914;22.266;2022-10-16T18:51:17;9.36;90.49
75387;DHT22;63966;47.914;22.266;2022-10-16T18:54:21;9.36;90.93
75387;DHT22;63966;47.914;22.266;2022-10-16T18:57:43;9.36;91.29
75387;DHT22;63966;47.914;22.266;2022-10-16T19:00:46;9.35;91.32
75387;DHT22;63966;47.914;22.266;2022-10-16T19:03:54;9.33;91.39
75387;DHT22;63966;47.914;22.266;2022-10-16T19:06:58;9.32;91.48
75387;DHT22;63966;47.914;22.266;2022-10-16T19:10:02;9.36;91.33
75387;DHT22;63966;47.914;22.266;2022-10-16T19:13:06;9.29;91.31
75387;DHT22;63966;47.914;22.266;2022-10-16T19:16:19;9.28;91.36
75387;DHT22;63966;47.914;22.266;2022-10-16T19:19:23;9.19;90.82
75387;DHT22;63966;47.914;22.266;2022-10-16T19:22:27;9.05;90.15
75387;DHT22;63966;47.914;22.266;2022-10-16T19:25:43;9.01;89.89
75387;DHT22;63966;47.914;22.266;2022-10-16T19:28:46;8.97;89.92
75387;DHT22;63966;47.914;22.266;2022-10-16T19:31:50;8.91;90.17
75387;DHT22;63966;47.914;22.266;2022-10-16T19:34:53;8.91;90.31
75387;DHT22;63966;47.914;22.266;2022-10-16T19:37:59;8.89;90.69
75387;DHT22;63966;47.914;22.266;2022-10-16T19:41:05;8.89;91.30
75387;DHT22;63966;47.914;22.266;2022-10-16T19:44:11;8.88;91.15
75387;DHT22;63966;47.914;22.266;2022-10-16T19:47:14;8.85;90.80
75387;DHT22;63966;47.914;22.266;2022-10-16T19:50:23;8.82;90.50
75387;DHT22;63966;47.914;22.266;2022-10-16T19:53:26;8.77;90.67
75387;DHT22;63966;47.914;22.266;2022-10-16T19:56:32;8.80;91.33
75387;DHT22;63966;47.914;22.266;2022-10-16T19:59:36;8.77;91.59
75387;DHT22;63966;47.914;22.266;2022-10-16T20:02:42;8.71;91.38
75387;DHT22;63966;47.914;22.266;2022-10-16T20:05:53;8.65;90.84
75387;DHT22;63966;47.914;22.266;2022-10-16T20:08:57;8.65;91.02
75387;DHT22;63966;47.914;22.266;2022-10-16T20:12:01;8.65;90.91
75387;DHT22;63966;47.914;22.266;2022-10-16T20:15:05;8.64;91.06
75387;DHT22;63966;47.914;22.266;2022-10-16T20:18:08;8.60;90.69
75387;DHT22;63966;47.914;22.266;2022-10-16T20:21:14;8.54;90.40
75387;DHT22;63966;47.914;22.266;2022-10-16T20:24:18;8.47;90.53
75387;DHT22;63966;47.914;22.266;2022-10-16T20:27:21;8.42;90.59
75387;DHT22;63966;47.914;22.266;2022-10-16T20:30:24;8.34;90.27
75387;DHT22;63966;47.914;22.266;2022-10-16T20:33:28;8.34;90.64
75387;DHT22;63966;47.914;22.266;2022-10-16T20:36:32;8.30;90.31
75387;DHT22;63966;47.914;22.266;2022-10-16T20:39:36;8.28;90.25
75387;DHT22;63966;47.914;22.266;2022-10-16T20:42:39;8.22;89.93
75387;DHT22;63966;47.914;22.266;2022-10-16T20:45:43;8.22;90.20
75387;DHT22;63966;47.914;22.266;2022-10-16T20:48:47;8.21;90.66
75387;DHT22;63966;47.914;22.266;2022-10-16T20:51:51;8.19;90.48
75387;DHT22;63966;47.914;22.266;2022-10-16T20:54:54;8.21;90.37
75387;DHT22;63966;47.914;22.266;2022-10-16T20:57:57;8.19;90.39
75387;DHT22;63966;47.914;22.266;2022-10-16T21:01:06;8.16;90.37
75387;DHT22;63966;47.914;22.266;2022-10-16T21:04:09;8.12;90.49
75387;DHT22;63966;47.914;22.266;2022-10-16T21:07:13;8.01;89.65
75387;DHT22;63966;47.914;22.266;2022-10-16T21:10:16;7.94;89.40
75387;DHT22;63966;47.914;22.266;2022-10-16T21:13:21;7.86;89.58
75387;DHT22;63966;47.914;22.266;2022-10-16T21:16:28;7.75;90.02
75387;DHT22;63966;47.914;22.266;2022-10-16T21:19:32;7.70;90.43
75387;DHT22;63966;47.914;22.266;2022-10-16T21:22:35;7.78;91.12
75387;DHT22;63966;47.914;22.266;2022-10-16T21:25:39;7.79;90.13
75387;DHT22;63966;47.914;22.266;2022-10-16T21:28:49;7.75;90.34
75387;DHT22;63966;47.914;22.266;2022-10-16T21:31:52;7.79;90.66